Normand Skude — LNVA — position and weather

sailwx.info

Track history (hours):
 
Tides and Currents Weather Stations Pressure Air Temp Water Temp Dewpoint Dewpoint Depression Visibility Wind Speed Wind Dir Waves Ship Positions

Normand Skude

Last reported at 2018-Jun-18 03:30 UTC. Time now 2018-Jun-18 03:34 UTC.
Position N 58°42' E 005°14'.

Length 87 m; draft 5 m.

Type: Cargo ship. MMSI: 257982000.

Date/timePositionNaut miles runAvg speedWind from/ knotsBaromVisibWave heightAir tempDewpointWater temp
2018-Jun-18 03:30N 58°42' E 005°14'3 7.0
2018-Jun-18 03:00N 58°39' E 005°10'4 7.1
2018-Jun-18 02:30N 58°36' E 005°05'4 7.1
2018-Jun-18 01:58N 58°33' E 005°01'3 7.2
2018-Jun-18 01:29N 58°31' E 004°56'6 7.5
2018-Jun-18 00:45N 58°26' E 004°50'  
2018-Jun-15 19:11N 58°27' E 004°55'310.7
2018-Jun-15 18:55N 58°29' E 004°58'510.1
2018-Jun-15 18:27N 58°33' E 005°03'510.3
2018-Jun-15 18:00N 58°37' E 005°08'510.1
2018-Jun-15 17:30N 58°41' E 005°13'5 9.5
2018-Jun-15 17:00N 58°45' E 005°18'5 9.5
2018-Jun-15 16:30N 58°49' E 005°23'5 9.9
2018-Jun-15 16:00N 58°52' E 005°30'4 8.7
2018-Jun-15 15:30N 58°56' E 005°35'1 1.1
2018-Jun-15 14:59N 58°55' E 005°36'0 0.0
2018-Jun-15 14:29N 58°55' E 005°36'0 0.0
2018-Jun-15 13:59N 58°55' E 005°36'0 0.0
2018-Jun-15 13:29N 58°55' E 005°36'0 0.0
2018-Jun-15 12:59N 58°55' E 005°36'0 0.0
2018-Jun-15 12:29N 58°55' E 005°36'0 0.0
2018-Jun-15 11:59N 58°55' E 005°36'0 0.0
2018-Jun-15 11:29N 58°55' E 005°36'0 0.0
2018-Jun-15 10:59N 58°55' E 005°36'0 0.0
2018-Jun-15 10:29N 58°55' E 005°36'0 0.0
2018-Jun-15 09:59N 58°55' E 005°36'0 0.0
2018-Jun-15 09:29N 58°55' E 005°36'0 0.0
2018-Jun-15 08:59N 58°55' E 005°36'0 0.0
2018-Jun-15 08:29N 58°55' E 005°36'0 0.0
2018-Jun-15 07:59N 58°55' E 005°36'0 0.0
2018-Jun-15 07:29N 58°55' E 005°36'0 0.0
2018-Jun-15 06:59N 58°55' E 005°36'0 0.0
2018-Jun-15 06:29N 58°55' E 005°36'0 0.0
2018-Jun-15 05:59N 58°55' E 005°36'0 0.0
2018-Jun-15 05:29N 58°55' E 005°36'0 0.0
2018-Jun-15 04:59N 58°55' E 005°36'0 0.0
2018-Jun-15 04:29N 58°55' E 005°36'0 0.0
2018-Jun-15 03:59N 58°55' E 005°36'0 0.0
2018-Jun-15 03:29N 58°55' E 005°36'0 0.0
2018-Jun-15 02:59N 58°55' E 005°36'0 0.0
2018-Jun-15 02:29N 58°55' E 005°36'0 0.0
2018-Jun-15 01:59N 58°55' E 005°36'0 0.0
2018-Jun-15 01:29N 58°55' E 005°36'0 0.0
2018-Jun-15 00:59N 58°55' E 005°36'0 0.0
2018-Jun-15 00:29N 58°55' E 005°36'0 0.0
2018-Jun-14 23:56N 58°55' E 005°36'0 0.0
2018-Jun-14 23:29N 58°55' E 005°36'0 0.0
2018-Jun-14 22:59N 58°55' E 005°36'0 0.0
2018-Jun-14 22:29N 58°55' E 005°36'0 0.0
2018-Jun-14 21:59N 58°55' E 005°36'0 0.0
2018-Jun-14 21:29N 58°55' E 005°36'0 0.0
2018-Jun-14 20:59N 58°55' E 005°36'0 0.0
2018-Jun-14 20:29N 58°55' E 005°36'0 0.0
2018-Jun-14 19:59N 58°55' E 005°36'0 0.0
2018-Jun-14 19:29N 58°55' E 005°36'0 0.0
2018-Jun-14 18:59N 58°55' E 005°36'0 0.0
2018-Jun-14 18:29N 58°55' E 005°36'0 0.0
2018-Jun-14 17:59N 58°55' E 005°36'0 0.0
2018-Jun-14 17:29N 58°55' E 005°36'0 0.0
2018-Jun-14 16:59N 58°55' E 005°36'0 0.0
2018-Jun-14 16:29N 58°55' E 005°36'0 0.0
2018-Jun-14 15:59N 58°55' E 005°36'0 0.0
2018-Jun-14 15:29N 58°55' E 005°36'0 0.0
2018-Jun-14 14:59N 58°55' E 005°36'0 0.0
2018-Jun-14 14:29N 58°55' E 005°36'0 0.0
2018-Jun-14 13:59N 58°55' E 005°36'0 0.0
2018-Jun-14 13:29N 58°55' E 005°36'0 0.0
2018-Jun-14 12:59N 58°55' E 005°36'0 0.0
2018-Jun-14 12:29N 58°55' E 005°36'0 0.0
2018-Jun-14 11:59N 58°55' E 005°36'0 0.0
2018-Jun-14 11:29N 58°55' E 005°36'0 0.0
2018-Jun-14 10:59N 58°55' E 005°36'0 0.0
2018-Jun-14 10:29N 58°55' E 005°36'0 0.0
2018-Jun-14 09:59N 58°55' E 005°36'0 0.0
2018-Jun-14 09:29N 58°55' E 005°36'0 0.0
2018-Jun-14 08:59N 58°55' E 005°36'0 0.0
2018-Jun-14 08:29N 58°55' E 005°36'0 0.0
2018-Jun-14 07:59N 58°55' E 005°36'0 0.0
2018-Jun-14 07:29N 58°55' E 005°36'0 0.0
2018-Jun-14 06:59N 58°55' E 005°36'0 0.1
2018-Jun-14 06:30N 58°56' E 005°36'2 4.0
2018-Jun-14 06:00N 58°55' E 005°32'510.7
2018-Jun-14 05:30N 58°50' E 005°28'611.5
2018-Jun-14 05:00N 58°45' E 005°24'611.5
2018-Jun-14 04:30N 58°40' E 005°19'611.0
2018-Jun-14 04:00N 58°35' E 005°15'611.2
2018-Jun-14 03:29N 58°29' E 005°11'10 0.3
2018-Jun-12 18:08N 58°28' E 004°51'210.3
2018-Jun-12 17:58N 58°29' E 004°53'510.0
2018-Jun-12 17:29N 58°33' E 004°58'610.7
2018-Jun-12 16:58N 58°38' E 005°05'510.2
2018-Jun-12 16:30N 58°41' E 005°10'5 9.7
2018-Jun-12 16:00N 58°45' E 005°16'5 9.6
2018-Jun-12 15:30N 58°48' E 005°23'510.2
2018-Jun-12 15:00N 58°52' E 005°30'4 9.1
2018-Jun-12 14:30N 58°56' E 005°35'0 0.9
2018-Jun-12 14:00N 58°55' E 005°36'0 0.0
2018-Jun-12 13:30N 58°55' E 005°36'0 0.0
2018-Jun-12 13:00N 58°55' E 005°36'0 0.0
2018-Jun-12 12:30N 58°55' E 005°36'0 0.0
2018-Jun-12 12:00N 58°55' E 005°36'0 0.0
2018-Jun-12 11:30N 58°55' E 005°36'0 0.0
2018-Jun-12 11:00N 58°55' E 005°36'0 0.4
2018-Jun-12 10:30N 58°55' E 005°36'0 0.0
2018-Jun-12 10:00N 58°55' E 005°36'0 0.0
2018-Jun-12 09:30N 58°55' E 005°36'0 0.0
2018-Jun-12 09:00N 58°55' E 005°36'0 0.0
2018-Jun-12 08:30N 58°55' E 005°36'0 0.0
2018-Jun-12 08:00N 58°55' E 005°36'0 0.0
2018-Jun-12 07:30N 58°55' E 005°36'0 0.0
2018-Jun-12 07:01N 58°55' E 005°36'0 0.0
2018-Jun-12 06:30N 58°55' E 005°36'0 0.0
2018-Jun-12 06:00N 58°55' E 005°36'0 0.0
2018-Jun-12 05:30N 58°55' E 005°36'0 0.0
2018-Jun-12 05:00N 58°55' E 005°36'0 0.0
2018-Jun-12 04:30N 58°55' E 005°36'0 0.0
2018-Jun-12 04:00N 58°55' E 005°36'0 0.6
2018-Jun-12 03:29N 58°55' E 005°35'0 0.0
2018-Jun-12 02:59N 58°55' E 005°35'0 0.0
2018-Jun-12 02:29N 58°55' E 005°35'0 0.0
2018-Jun-12 01:59N 58°55' E 005°35'0 0.0
2018-Jun-12 01:29N 58°55' E 005°35'0 0.0
2018-Jun-12 00:59N 58°55' E 005°35'0 0.0
2018-Jun-12 00:29N 58°55' E 005°35'0 0.0
2018-Jun-11 23:59N 58°55' E 005°35'0 0.0
2018-Jun-11 23:29N 58°55' E 005°35'0 0.0
2018-Jun-11 22:59N 58°55' E 005°35'0 0.0
2018-Jun-11 22:29N 58°55' E 005°35'0 0.0
2018-Jun-11 21:59N 58°55' E 005°35'0 0.0
2018-Jun-11 21:29N 58°55' E 005°35'0 0.0
2018-Jun-11 20:59N 58°55' E 005°35'0 0.0
2018-Jun-11 20:29N 58°55' E 005°35'0 0.0
2018-Jun-11 19:59N 58°55' E 005°35'0 0.0
2018-Jun-11 19:29N 58°55' E 005°35'0 0.0
2018-Jun-11 18:59N 58°55' E 005°35'0 0.0
2018-Jun-11 18:29N 58°55' E 005°35'0 0.0
2018-Jun-11 17:59N 58°55' E 005°35'0 0.0
2018-Jun-11 17:29N 58°55' E 005°35'0 0.0
2018-Jun-11 16:59N 58°55' E 005°35'0 0.0
2018-Jun-11 16:29N 58°55' E 005°35'0 0.0
2018-Jun-11 15:59N 58°55' E 005°35'0 0.0
2018-Jun-11 15:29N 58°55' E 005°35'0 0.0
2018-Jun-11 14:59N 58°55' E 005°35'0 0.0
2018-Jun-11 14:29N 58°55' E 005°35'0 0.0
2018-Jun-11 13:59N 58°55' E 005°35'0 0.0
2018-Jun-11 13:29N 58°55' E 005°35'0 0.0
2018-Jun-11 12:59N 58°55' E 005°35'0 0.0
2018-Jun-11 12:29N 58°55' E 005°35'0 0.0
2018-Jun-11 11:59N 58°55' E 005°35'0 0.0
2018-Jun-11 11:29N 58°55' E 005°35'0 0.0
2018-Jun-11 10:59N 58°55' E 005°35'0 0.0
2018-Jun-11 10:29N 58°55' E 005°35'0 0.0
2018-Jun-11 09:59N 58°55' E 005°35'0 0.0
2018-Jun-11 09:29N 58°55' E 005°35'0 0.0
2018-Jun-11 08:59N 58°55' E 005°35'0 0.0
2018-Jun-11 08:29N 58°55' E 005°35'0 0.0
2018-Jun-11 07:59N 58°55' E 005°35'0 0.0
2018-Jun-11 07:29N 58°55' E 005°35'0 0.0
2018-Jun-11 06:59N 58°55' E 005°35'0 0.0
2018-Jun-11 06:29N 58°55' E 005°35'0 0.0
2018-Jun-11 05:59N 58°55' E 005°35'0 0.0
2018-Jun-11 05:29N 58°55' E 005°35'0 0.0
2018-Jun-11 04:59N 58°55' E 005°35'0 0.0
2018-Jun-11 04:29N 58°55' E 005°35'0 0.0
2018-Jun-11 03:59N 58°55' E 005°35'0 0.0
2018-Jun-11 03:29N 58°55' E 005°35'0 0.0
2018-Jun-11 02:59N 58°55' E 005°35'0 0.0
2018-Jun-11 02:29N 58°55' E 005°35'0 0.0
2018-Jun-11 01:59N 58°55' E 005°35'0 0.0
2018-Jun-11 01:29N 58°55' E 005°35'0 0.0
2018-Jun-11 00:59N 58°55' E 005°35'0 0.0
2018-Jun-11 00:29N 58°55' E 005°35'0 0.0
2018-Jun-10 23:59N 58°55' E 005°35'0 0.0
2018-Jun-10 23:29N 58°55' E 005°35'0 0.0
2018-Jun-10 22:59N 58°55' E 005°35'0 0.0
2018-Jun-10 22:29N 58°55' E 005°35'0 0.0
2018-Jun-10 21:59N 58°55' E 005°35'0 0.0
2018-Jun-10 21:29N 58°55' E 005°35'0 0.0
2018-Jun-10 20:59N 58°55' E 005°35'0 0.0
2018-Jun-10 20:29N 58°55' E 005°35'0 0.0
2018-Jun-10 19:59N 58°55' E 005°35'0 0.0
2018-Jun-10 19:29N 58°55' E 005°35'0 0.0
2018-Jun-10 18:59N 58°55' E 005°35'0 0.0
2018-Jun-10 18:29N 58°55' E 005°35'0 0.0
2018-Jun-10 17:59N 58°55' E 005°35'0 0.0
2018-Jun-10 17:29N 58°55' E 005°35'0 0.0
2018-Jun-10 16:59N 58°55' E 005°35'0 0.0
2018-Jun-10 16:29N 58°55' E 005°35'0 0.0
2018-Jun-10 15:59N 58°55' E 005°35'0 0.0
2018-Jun-10 15:29N 58°55' E 005°35'0 0.0
2018-Jun-10 14:59N 58°55' E 005°35'0 0.0
2018-Jun-10 14:29N 58°55' E 005°35'0 0.0
2018-Jun-10 13:29N 58°55' E 005°35'0 0.0
2018-Jun-10 12:59N 58°55' E 005°35'0 0.0
2018-Jun-10 12:29N 58°55' E 005°35'0 0.0
2018-Jun-10 11:59N 58°55' E 005°35'0 0.0
2018-Jun-10 11:29N 58°55' E 005°35'0 0.0
2018-Jun-10 10:59N 58°55' E 005°35'0 0.8
2018-Jun-10 10:31N 58°56' E 005°36'0 0.4
2018-Jun-10 10:00N 58°55' E 005°36'0 0.0
2018-Jun-10 09:30N 58°55' E 005°36'0 0.0
2018-Jun-10 09:00N 58°55' E 005°36'0 0.0
2018-Jun-10 08:30N 58°55' E 005°36'0 0.0
2018-Jun-10 08:00N 58°55' E 005°36'0 0.0
2018-Jun-10 07:30N 58°55' E 005°36'0 0.0
2018-Jun-10 07:00N 58°55' E 005°36'0 0.0
2018-Jun-10 06:30N 58°55' E 005°36'0 0.2
2018-Jun-10 06:00N 58°56' E 005°36'3 6.3
2018-Jun-10 05:30N 58°58' E 005°33'5 9.8
2018-Jun-10 05:00N 59°03' E 005°32'4 7.3
2018-Jun-10 04:30N 59°06' E 005°27'510.3
2018-Jun-10 04:00N 59°04' E 005°17'510.2
2018-Jun-10 03:30N 59°02' E 005°08'5 9.7
2018-Jun-10 03:00N 59°04' E 004°59'5 9.7
2018-Jun-10 02:29N 59°05' E 004°50'54 8.6
2018-Jun-09 20:13N 59°22' E 003°10'24 1.3
2018-Jun-09 01:10N 59°16' E 003°55'210.6
2018-Jun-09 00:59N 59°15' E 003°59'510.6
2018-Jun-09 00:30N 59°14' E 004°09'610.6
2018-Jun-08 23:55N 59°12' E 004°20'410.4
2018-Jun-08 23:30N 59°11' E 004°28'510.1
2018-Jun-08 23:00N 59°09' E 004°37'6 9.6
2018-Jun-08 22:25N 59°07' E 004°48'4 9.5
2018-Jun-08 21:59N 59°06' E 004°55'5 9.9
2018-Jun-08 21:30N 59°05' E 005°04'510.4
2018-Jun-08 21:00N 59°04' E 005°14'510.5
2018-Jun-08 20:30N 59°06' E 005°23'4 8.7
2018-Jun-08 20:00N 59°06' E 005°32'510.8
2018-Jun-08 19:30N 59°00' E 005°33'5 9.6
2018-Jun-08 19:00N 58°56' E 005°35'1 1.5
2018-Jun-08 18:29N 58°55' E 005°36'0 0.0
2018-Jun-08 17:56N 58°55' E 005°36'0 0.0
2018-Jun-08 17:29N 58°55' E 005°36'0 0.0
2018-Jun-08 16:59N 58°55' E 005°36'0 0.0
2018-Jun-08 16:29N 58°55' E 005°36'0 0.0
2018-Jun-08 15:59N 58°55' E 005°36'0 0.0
2018-Jun-08 15:29N 58°55' E 005°36'0 0.0
2018-Jun-08 14:59N 58°55' E 005°36'0 0.0
2018-Jun-08 14:29N 58°55' E 005°36'0 0.0
2018-Jun-08 13:59N 58°55' E 005°36'0 0.0
2018-Jun-08 13:29N 58°55' E 005°36'0 0.0
2018-Jun-08 12:59N 58°55' E 005°36'0 0.0
2018-Jun-08 12:29N 58°55' E 005°36'0 0.0
2018-Jun-08 11:59N 58°55' E 005°36'0 0.7
2018-Jun-08 11:28N 58°55' E 005°36'0 0.0
2018-Jun-08 10:58N 58°55' E 005°36'0 0.2
2018-Jun-08 10:28N 58°55' E 005°36'0 0.0
2018-Jun-08 09:58N 58°55' E 005°36'0 0.0
2018-Jun-08 09:28N 58°55' E 005°36'0 0.0
2018-Jun-08 08:58N 58°55' E 005°36'0 0.0
2018-Jun-08 08:28N 58°55' E 005°36'0 0.0
2018-Jun-08 07:58N 58°55' E 005°36'0 0.0
2018-Jun-08 07:28N 58°55' E 005°36'0 0.0
2018-Jun-08 06:58N 58°55' E 005°36'0 0.0
2018-Jun-08 06:28N 58°55' E 005°36'0 0.2
2018-Jun-08 05:58N 58°56' E 005°36'0 0.0
2018-Jun-08 05:28N 58°56' E 005°36'0 0.0
2018-Jun-08 04:58N 58°56' E 005°36'0 0.1
2018-Jun-08 04:28N 58°55' E 005°36'0 0.0
2018-Jun-08 03:58N 58°55' E 005°36'  
Track history (hours):
 
Tides and Currents Weather Stations Pressure Air Temp Water Temp Dewpoint Dewpoint Depression Visibility Wind Speed Wind Dir Waves Ship Positions

Normand Skude

Last reported at 2018-Jun-18 03:30 UTC. Time now 2018-Jun-18 03:34 UTC.
Position N 58°42' E 005°14'.

Length 87 m; draft 5 m.

Type: Cargo ship. MMSI: 257982000.

Date/timePositionNaut miles runAvg speedWind from/ knotsBaromVisibWave heightAir tempDewpointWater temp
2018-Jun-18 03:30N 58°42' E 005°14'3 7.0
2018-Jun-18 03:00N 58°39' E 005°10'4 7.1
2018-Jun-18 02:30N 58°36' E 005°05'4 7.1
2018-Jun-18 01:58N 58°33' E 005°01'3 7.2
2018-Jun-18 01:29N 58°31' E 004°56'6 7.5
2018-Jun-18 00:45N 58°26' E 004°50'  
2018-Jun-15 19:11N 58°27' E 004°55'310.7
2018-Jun-15 18:55N 58°29' E 004°58'510.1
2018-Jun-15 18:27N 58°33' E 005°03'510.3
2018-Jun-15 18:00N 58°37' E 005°08'510.1
2018-Jun-15 17:30N 58°41' E 005°13'5 9.5
2018-Jun-15 17:00N 58°45' E 005°18'5 9.5
2018-Jun-15 16:30N 58°49' E 005°23'5 9.9
2018-Jun-15 16:00N 58°52' E 005°30'4 8.7
2018-Jun-15 15:30N 58°56' E 005°35'1 1.1
2018-Jun-15 14:59N 58°55' E 005°36'0 0.0
2018-Jun-15 14:29N 58°55' E 005°36'0 0.0
2018-Jun-15 13:59N 58°55' E 005°36'0 0.0
2018-Jun-15 13:29N 58°55' E 005°36'0 0.0
2018-Jun-15 12:59N 58°55' E 005°36'0 0.0
2018-Jun-15 12:29N 58°55' E 005°36'0 0.0
2018-Jun-15 11:59N 58°55' E 005°36'0 0.0
2018-Jun-15 11:29N 58°55' E 005°36'0 0.0
2018-Jun-15 10:59N 58°55' E 005°36'0 0.0
2018-Jun-15 10:29N 58°55' E 005°36'0 0.0
2018-Jun-15 09:59N 58°55' E 005°36'0 0.0
2018-Jun-15 09:29N 58°55' E 005°36'0 0.0
2018-Jun-15 08:59N 58°55' E 005°36'0 0.0
2018-Jun-15 08:29N 58°55' E 005°36'0 0.0
2018-Jun-15 07:59N 58°55' E 005°36'0 0.0
2018-Jun-15 07:29N 58°55' E 005°36'0 0.0
2018-Jun-15 06:59N 58°55' E 005°36'0 0.0
2018-Jun-15 06:29N 58°55' E 005°36'0 0.0
2018-Jun-15 05:59N 58°55' E 005°36'0 0.0
2018-Jun-15 05:29N 58°55' E 005°36'0 0.0
2018-Jun-15 04:59N 58°55' E 005°36'0 0.0
2018-Jun-15 04:29N 58°55' E 005°36'0 0.0
2018-Jun-15 03:59N 58°55' E 005°36'0 0.0
2018-Jun-15 03:29N 58°55' E 005°36'0 0.0
2018-Jun-15 02:59N 58°55' E 005°36'0 0.0
2018-Jun-15 02:29N 58°55' E 005°36'0 0.0
2018-Jun-15 01:59N 58°55' E 005°36'0 0.0
2018-Jun-15 01:29N 58°55' E 005°36'0 0.0
2018-Jun-15 00:59N 58°55' E 005°36'0 0.0
2018-Jun-15 00:29N 58°55' E 005°36'0 0.0
2018-Jun-14 23:56N 58°55' E 005°36'0 0.0
2018-Jun-14 23:29N 58°55' E 005°36'0 0.0
2018-Jun-14 22:59N 58°55' E 005°36'0 0.0
2018-Jun-14 22:29N 58°55' E 005°36'0 0.0
2018-Jun-14 21:59N 58°55' E 005°36'0 0.0
2018-Jun-14 21:29N 58°55' E 005°36'0 0.0
2018-Jun-14 20:59N 58°55' E 005°36'0 0.0
2018-Jun-14 20:29N 58°55' E 005°36'0 0.0
2018-Jun-14 19:59N 58°55' E 005°36'0 0.0
2018-Jun-14 19:29N 58°55' E 005°36'0 0.0
2018-Jun-14 18:59N 58°55' E 005°36'0 0.0
2018-Jun-14 18:29N 58°55' E 005°36'0 0.0
2018-Jun-14 17:59N 58°55' E 005°36'0 0.0
2018-Jun-14 17:29N 58°55' E 005°36'0 0.0
2018-Jun-14 16:59N 58°55' E 005°36'0 0.0
2018-Jun-14 16:29N 58°55' E 005°36'0 0.0
2018-Jun-14 15:59N 58°55' E 005°36'0 0.0
2018-Jun-14 15:29N 58°55' E 005°36'0 0.0
2018-Jun-14 14:59N 58°55' E 005°36'0 0.0
2018-Jun-14 14:29N 58°55' E 005°36'0 0.0
2018-Jun-14 13:59N 58°55' E 005°36'0 0.0
2018-Jun-14 13:29N 58°55' E 005°36'0 0.0
2018-Jun-14 12:59N 58°55' E 005°36'0 0.0
2018-Jun-14 12:29N 58°55' E 005°36'0 0.0
2018-Jun-14 11:59N 58°55' E 005°36'0 0.0
2018-Jun-14 11:29N 58°55' E 005°36'0 0.0
2018-Jun-14 10:59N 58°55' E 005°36'0 0.0
2018-Jun-14 10:29N 58°55' E 005°36'0 0.0
2018-Jun-14 09:59N 58°55' E 005°36'0 0.0
2018-Jun-14 09:29N 58°55' E 005°36'0 0.0
2018-Jun-14 08:59N 58°55' E 005°36'0 0.0
2018-Jun-14 08:29N 58°55' E 005°36'0 0.0
2018-Jun-14 07:59N 58°55' E 005°36'0 0.0
2018-Jun-14 07:29N 58°55' E 005°36'0 0.0
2018-Jun-14 06:59N 58°55' E 005°36'0 0.1
2018-Jun-14 06:30N 58°56' E 005°36'2 4.0
2018-Jun-14 06:00N 58°55' E 005°32'510.7
2018-Jun-14 05:30N 58°50' E 005°28'611.5
2018-Jun-14 05:00N 58°45' E 005°24'611.5
2018-Jun-14 04:30N 58°40' E 005°19'611.0
2018-Jun-14 04:00N 58°35' E 005°15'611.2
2018-Jun-14 03:29N 58°29' E 005°11'10 0.3
2018-Jun-12 18:08N 58°28' E 004°51'210.3
2018-Jun-12 17:58N 58°29' E 004°53'510.0
2018-Jun-12 17:29N 58°33' E 004°58'610.7
2018-Jun-12 16:58N 58°38' E 005°05'510.2
2018-Jun-12 16:30N 58°41' E 005°10'5 9.7
2018-Jun-12 16:00N 58°45' E 005°16'5 9.6
2018-Jun-12 15:30N 58°48' E 005°23'510.2
2018-Jun-12 15:00N 58°52' E 005°30'4 9.1
2018-Jun-12 14:30N 58°56' E 005°35'0 0.9
2018-Jun-12 14:00N 58°55' E 005°36'0 0.0
2018-Jun-12 13:30N 58°55' E 005°36'0 0.0
2018-Jun-12 13:00N 58°55' E 005°36'0 0.0
2018-Jun-12 12:30N 58°55' E 005°36'0 0.0
2018-Jun-12 12:00N 58°55' E 005°36'0 0.0
2018-Jun-12 11:30N 58°55' E 005°36'0 0.0
2018-Jun-12 11:00N 58°55' E 005°36'0 0.4
2018-Jun-12 10:30N 58°55' E 005°36'0 0.0
2018-Jun-12 10:00N 58°55' E 005°36'0 0.0
2018-Jun-12 09:30N 58°55' E 005°36'0 0.0
2018-Jun-12 09:00N 58°55' E 005°36'0 0.0
2018-Jun-12 08:30N 58°55' E 005°36'0 0.0
2018-Jun-12 08:00N 58°55' E 005°36'0 0.0
2018-Jun-12 07:30N 58°55' E 005°36'0 0.0
2018-Jun-12 07:01N 58°55' E 005°36'0 0.0
2018-Jun-12 06:30N 58°55' E 005°36'0 0.0
2018-Jun-12 06:00N 58°55' E 005°36'0 0.0
2018-Jun-12 05:30N 58°55' E 005°36'0 0.0
2018-Jun-12 05:00N 58°55' E 005°36'0 0.0
2018-Jun-12 04:30N 58°55' E 005°36'0 0.0
2018-Jun-12 04:00N 58°55' E 005°36'0 0.6
2018-Jun-12 03:29N 58°55' E 005°35'0 0.0
2018-Jun-12 02:59N 58°55' E 005°35'0 0.0
2018-Jun-12 02:29N 58°55' E 005°35'0 0.0
2018-Jun-12 01:59N 58°55' E 005°35'0 0.0
2018-Jun-12 01:29N 58°55' E 005°35'0 0.0
2018-Jun-12 00:59N 58°55' E 005°35'0 0.0
2018-Jun-12 00:29N 58°55' E 005°35'0 0.0
2018-Jun-11 23:59N 58°55' E 005°35'0 0.0
2018-Jun-11 23:29N 58°55' E 005°35'0 0.0
2018-Jun-11 22:59N 58°55' E 005°35'0 0.0
2018-Jun-11 22:29N 58°55' E 005°35'0 0.0
2018-Jun-11 21:59N 58°55' E 005°35'0 0.0
2018-Jun-11 21:29N 58°55' E 005°35'0 0.0
2018-Jun-11 20:59N 58°55' E 005°35'0 0.0
2018-Jun-11 20:29N 58°55' E 005°35'0 0.0
2018-Jun-11 19:59N 58°55' E 005°35'0 0.0
2018-Jun-11 19:29N 58°55' E 005°35'0 0.0
2018-Jun-11 18:59N 58°55' E 005°35'0 0.0
2018-Jun-11 18:29N 58°55' E 005°35'0 0.0
2018-Jun-11 17:59N 58°55' E 005°35'0 0.0
2018-Jun-11 17:29N 58°55' E 005°35'0 0.0
2018-Jun-11 16:59N 58°55' E 005°35'0 0.0
2018-Jun-11 16:29N 58°55' E 005°35'0 0.0
2018-Jun-11 15:59N 58°55' E 005°35'0 0.0
2018-Jun-11 15:29N 58°55' E 005°35'0 0.0
2018-Jun-11 14:59N 58°55' E 005°35'0 0.0
2018-Jun-11 14:29N 58°55' E 005°35'0 0.0
2018-Jun-11 13:59N 58°55' E 005°35'0 0.0
2018-Jun-11 13:29N 58°55' E 005°35'0 0.0
2018-Jun-11 12:59N 58°55' E 005°35'0 0.0
2018-Jun-11 12:29N 58°55' E 005°35'0 0.0
2018-Jun-11 11:59N 58°55' E 005°35'0 0.0
2018-Jun-11 11:29N 58°55' E 005°35'0 0.0
2018-Jun-11 10:59N 58°55' E 005°35'0 0.0
2018-Jun-11 10:29N 58°55' E 005°35'0 0.0
2018-Jun-11 09:59N 58°55' E 005°35'0 0.0
2018-Jun-11 09:29N 58°55' E 005°35'0 0.0
2018-Jun-11 08:59N 58°55' E 005°35'0 0.0
2018-Jun-11 08:29N 58°55' E 005°35'0 0.0
2018-Jun-11 07:59N 58°55' E 005°35'0 0.0
2018-Jun-11 07:29N 58°55' E 005°35'0 0.0
2018-Jun-11 06:59N 58°55' E 005°35'0 0.0
2018-Jun-11 06:29N 58°55' E 005°35'0 0.0
2018-Jun-11 05:59N 58°55' E 005°35'0 0.0
2018-Jun-11 05:29N 58°55' E 005°35'0 0.0
2018-Jun-11 04:59N 58°55' E 005°35'0 0.0
2018-Jun-11 04:29N 58°55' E 005°35'0 0.0
2018-Jun-11 03:59N 58°55' E 005°35'0 0.0
2018-Jun-11 03:29N 58°55' E 005°35'0 0.0
2018-Jun-11 02:59N 58°55' E 005°35'0 0.0
2018-Jun-11 02:29N 58°55' E 005°35'0 0.0
2018-Jun-11 01:59N 58°55' E 005°35'0 0.0
2018-Jun-11 01:29N 58°55' E 005°35'0 0.0
2018-Jun-11 00:59N 58°55' E 005°35'0 0.0
2018-Jun-11 00:29N 58°55' E 005°35'0 0.0
2018-Jun-10 23:59N 58°55' E 005°35'0 0.0
2018-Jun-10 23:29N 58°55' E 005°35'0 0.0
2018-Jun-10 22:59N 58°55' E 005°35'0 0.0
2018-Jun-10 22:29N 58°55' E 005°35'0 0.0
2018-Jun-10 21:59N 58°55' E 005°35'0 0.0
2018-Jun-10 21:29N 58°55' E 005°35'0 0.0
2018-Jun-10 20:59N 58°55' E 005°35'0 0.0
2018-Jun-10 20:29N 58°55' E 005°35'0 0.0
2018-Jun-10 19:59N 58°55' E 005°35'0 0.0
2018-Jun-10 19:29N 58°55' E 005°35'0 0.0
2018-Jun-10 18:59N 58°55' E 005°35'0 0.0
2018-Jun-10 18:29N 58°55' E 005°35'0 0.0
2018-Jun-10 17:59N 58°55' E 005°35'0 0.0
2018-Jun-10 17:29N 58°55' E 005°35'0 0.0
2018-Jun-10 16:59N 58°55' E 005°35'0 0.0
2018-Jun-10 16:29N 58°55' E 005°35'0 0.0
2018-Jun-10 15:59N 58°55' E 005°35'0 0.0
2018-Jun-10 15:29N 58°55' E 005°35'0 0.0
2018-Jun-10 14:59N 58°55' E 005°35'0 0.0
2018-Jun-10 14:29N 58°55' E 005°35'0 0.0
2018-Jun-10 13:29N 58°55' E 005°35'0 0.0
2018-Jun-10 12:59N 58°55' E 005°35'0 0.0
2018-Jun-10 12:29N 58°55' E 005°35'0 0.0
2018-Jun-10 11:59N 58°55' E 005°35'0 0.0
2018-Jun-10 11:29N 58°55' E 005°35'0 0.0
2018-Jun-10 10:59N 58°55' E 005°35'0 0.8
2018-Jun-10 10:31N 58°56' E 005°36'0 0.4
2018-Jun-10 10:00N 58°55' E 005°36'0 0.0
2018-Jun-10 09:30N 58°55' E 005°36'0 0.0
2018-Jun-10 09:00N 58°55' E 005°36'0 0.0
2018-Jun-10 08:30N 58°55' E 005°36'0 0.0
2018-Jun-10 08:00N 58°55' E 005°36'0 0.0
2018-Jun-10 07:30N 58°55' E 005°36'0 0.0
2018-Jun-10 07:00N 58°55' E 005°36'0 0.0
2018-Jun-10 06:30N 58°55' E 005°36'0 0.2
2018-Jun-10 06:00N 58°56' E 005°36'3 6.3
2018-Jun-10 05:30N 58°58' E 005°33'5 9.8
2018-Jun-10 05:00N 59°03' E 005°32'4 7.3
2018-Jun-10 04:30N 59°06' E 005°27'510.3
2018-Jun-10 04:00N 59°04' E 005°17'510.2
2018-Jun-10 03:30N 59°02' E 005°08'5 9.7
2018-Jun-10 03:00N 59°04' E 004°59'5 9.7
2018-Jun-10 02:29N 59°05' E 004°50'54 8.6
2018-Jun-09 20:13N 59°22' E 003°10'24 1.3
2018-Jun-09 01:10N 59°16' E 003°55'210.6
2018-Jun-09 00:59N 59°15' E 003°59'510.6
2018-Jun-09 00:30N 59°14' E 004°09'610.6
2018-Jun-08 23:55N 59°12' E 004°20'410.4
2018-Jun-08 23:30N 59°11' E 004°28'510.1
2018-Jun-08 23:00N 59°09' E 004°37'6 9.6
2018-Jun-08 22:25N 59°07' E 004°48'4 9.5
2018-Jun-08 21:59N 59°06' E 004°55'5 9.9
2018-Jun-08 21:30N 59°05' E 005°04'510.4
2018-Jun-08 21:00N 59°04' E 005°14'510.5
2018-Jun-08 20:30N 59°06' E 005°23'4 8.7
2018-Jun-08 20:00N 59°06' E 005°32'510.8
2018-Jun-08 19:30N 59°00' E 005°33'5 9.6
2018-Jun-08 19:00N 58°56' E 005°35'1 1.5
2018-Jun-08 18:29N 58°55' E 005°36'0 0.0
2018-Jun-08 17:56N 58°55' E 005°36'0 0.0
2018-Jun-08 17:29N 58°55' E 005°36'0 0.0
2018-Jun-08 16:59N 58°55' E 005°36'0 0.0
2018-Jun-08 16:29N 58°55' E 005°36'0 0.0
2018-Jun-08 15:59N 58°55' E 005°36'0 0.0
2018-Jun-08 15:29N 58°55' E 005°36'0 0.0
2018-Jun-08 14:59N 58°55' E 005°36'0 0.0
2018-Jun-08 14:29N 58°55' E 005°36'0 0.0
2018-Jun-08 13:59N 58°55' E 005°36'0 0.0
2018-Jun-08 13:29N 58°55' E 005°36'0 0.0
2018-Jun-08 12:59N 58°55' E 005°36'0 0.0
2018-Jun-08 12:29N 58°55' E 005°36'0 0.0
2018-Jun-08 11:59N 58°55' E 005°36'0 0.7
2018-Jun-08 11:28N 58°55' E 005°36'0 0.0
2018-Jun-08 10:58N 58°55' E 005°36'0 0.2
2018-Jun-08 10:28N 58°55' E 005°36'0 0.0
2018-Jun-08 09:58N 58°55' E 005°36'0 0.0
2018-Jun-08 09:28N 58°55' E 005°36'0 0.0
2018-Jun-08 08:58N 58°55' E 005°36'0 0.0
2018-Jun-08 08:28N 58°55' E 005°36'0 0.0
2018-Jun-08 07:58N 58°55' E 005°36'0 0.0
2018-Jun-08 07:28N 58°55' E 005°36'0 0.0
2018-Jun-08 06:58N 58°55' E 005°36'0 0.0
2018-Jun-08 06:28N 58°55' E 005°36'0 0.2
2018-Jun-08 05:58N 58°56' E 005°36'0 0.0
2018-Jun-08 05:28N 58°56' E 005°36'0 0.0
2018-Jun-08 04:58N 58°56' E 005°36'0 0.1
2018-Jun-08 04:28N 58°55' E 005°36'0 0.0
2018-Jun-08 03:58N 58°55' E 005°36'  

Dump ship's entire track history